createdAt,value
2024-01-16T00:03:30.886Z,4.43
2024-01-16T00:08:32.510Z,3.90
2024-01-16T00:13:34.477Z,4.85
2024-01-16T00:18:36.189Z,4.38
2024-01-16T00:23:37.843Z,4.25
2024-01-16T00:28:44.115Z,4.30
2024-01-16T00:33:45.759Z,4.32
2024-01-16T00:38:48.204Z,4.43
2024-01-16T00:43:50.156Z,4.00
2024-01-16T00:48:51.943Z,4.45
2024-01-16T00:53:53.736Z,5.30
2024-01-16T00:58:55.454Z,4.68
2024-01-16T01:03:57.285Z,4.65
2024-01-16T01:09:00.405Z,4.63
2024-01-16T01:14:02.718Z,4.82
2024-01-16T01:19:04.496Z,4.78
2024-01-16T01:24:06.159Z,4.03
2024-01-16T01:29:08.015Z,4.50
2024-01-16T01:34:09.749Z,4.38
2024-01-16T01:39:12.256Z,4.70
2024-01-16T01:44:17.405Z,4.28
2024-01-16T01:49:19.439Z,4.38
2024-01-16T01:54:21.897Z,4.40
2024-01-16T01:59:24.623Z,4.30
2024-01-16T02:04:27.945Z,4.40
2024-01-16T02:09:30.199Z,5.00
2024-01-16T02:14:31.892Z,4.68
2024-01-16T02:19:33.574Z,4.97
2024-01-16T02:24:35.340Z,4.80
2024-01-16T02:29:42.189Z,4.80
2024-01-16T02:34:44.694Z,5.10
2024-01-16T02:39:46.361Z,5.28
2024-01-16T02:44:47.930Z,4.90
2024-01-16T02:49:49.545Z,4.97
2024-01-16T02:54:51.155Z,4.88
2024-01-16T02:59:52.804Z,5.22
2024-01-16T03:04:54.424Z,5.05
2024-01-16T03:09:56.037Z,4.90
2024-01-16T03:14:57.753Z,5.35
2024-01-16T03:19:59.648Z,4.47
2024-01-16T03:25:03.731Z,5.35
2024-01-16T03:30:06.193Z,4.80
2024-01-16T03:35:08.757Z,5.18
2024-01-16T03:40:12.414Z,5.10
2024-01-16T03:45:16.807Z,4.82
2024-01-16T03:50:19.176Z,4.90
2024-01-16T03:55:20.922Z,4.63
2024-01-16T04:00:22.766Z,5.30
2024-01-16T04:05:24.801Z,5.20
2024-01-16T04:10:26.518Z,5.47
2024-01-16T04:15:28.195Z,4.13
2024-01-16T04:20:29.835Z,4.82
2024-01-16T04:25:31.533Z,5.18
2024-01-16T04:30:33.205Z,4.68
2024-01-16T04:35:35.083Z,4.40
2024-01-16T04:40:37.610Z,4.45
2024-01-16T04:45:39.203Z,4.60
2024-01-16T04:50:40.883Z,5.10
2024-01-16T04:55:42.557Z,4.95
2024-01-16T05:00:44.156Z,5.55
2024-01-16T05:05:45.764Z,4.70
2024-01-16T05:10:47.339Z,6.70
2024-01-16T05:15:48.900Z,5.85
2024-01-16T05:20:50.459Z,5.40
2024-01-16T05:25:52.131Z,4.95
2024-01-16T05:30:53.740Z,5.93
2024-01-16T05:35:55.414Z,4.55
2024-01-16T05:40:57.037Z,5.60
2024-01-16T05:45:58.689Z,5.30
2024-01-16T05:51:01.736Z,5.80
2024-01-16T05:56:03.604Z,5.47
2024-01-16T06:01:06.091Z,5.30
2024-01-16T06:06:08.525Z,5.78
2024-01-16T06:11:14.203Z,5.72
2024-01-16T06:16:16.284Z,6.55
2024-01-16T06:21:20.465Z,5.93
2024-01-16T06:26:23.328Z,5.93
2024-01-16T06:31:27.284Z,5.53
2024-01-16T06:36:28.938Z,5.50
2024-01-16T06:41:30.621Z,5.70
2024-01-16T06:46:32.209Z,6.25
2024-01-16T06:51:33.913Z,6.63
2024-01-16T06:56:35.538Z,6.43
2024-01-16T07:01:37.071Z,6.68
2024-01-16T07:06:38.675Z,6.20
2024-01-16T07:11:43.716Z,6.22
2024-01-16T07:16:45.415Z,6.38
2024-01-16T07:21:47.264Z,5.55
2024-01-16T07:26:48.989Z,5.85
2024-01-16T07:31:50.665Z,6.00
2024-01-16T07:36:52.533Z,5.50
2024-01-16T07:41:54.096Z,6.15
2024-01-16T07:46:55.864Z,7.63
2024-01-16T07:51:57.660Z,6.50
2024-01-16T07:57:00.580Z,7.20
2024-01-16T08:02:02.262Z,6.60
2024-01-16T08:07:04.310Z,4.90
2024-01-16T08:12:07.024Z,5.03
2024-01-16T08:17:09.337Z,5.18
2024-01-16T08:22:18.105Z,6.03
2024-01-16T08:27:22.237Z,6.85
2024-01-16T08:32:24.072Z,8.13
2024-01-16T08:37:26.663Z,6.85
2024-01-16T08:42:28.261Z,5.97
2024-01-16T08:47:29.958Z,6.75
2024-01-16T08:52:31.899Z,6.15
2024-01-16T08:57:33.455Z,5.72
2024-01-16T09:02:35.086Z,5.78
2024-01-16T09:07:36.885Z,6.53
2024-01-16T09:12:38.456Z,5.85
2024-01-16T09:17:40.319Z,5.35
2024-01-16T09:22:42.101Z,5.55
2024-01-16T09:27:43.712Z,5.45
2024-01-16T09:32:46.661Z,5.82
2024-01-16T09:37:48.773Z,5.45
2024-01-16T09:42:52.117Z,5.63
2024-01-16T09:47:54.508Z,6.15
2024-01-16T09:52:59.165Z,5.90
2024-01-16T09:58:04.730Z,5.22
2024-01-16T10:03:06.983Z,5.22
2024-01-16T10:08:09.140Z,4.95
2024-01-16T10:13:10.903Z,5.93
2024-01-16T10:18:31.125Z,5.15
2024-01-16T10:23:38.076Z,5.90
2024-01-16T10:28:41.343Z,4.80
2024-01-16T10:33:43.303Z,4.85
2024-01-16T10:38:46.756Z,4.47
2024-01-16T10:43:48.707Z,4.53
2024-01-16T10:49:06.515Z,5.47
2024-01-16T10:54:15.204Z,4.50
2024-01-16T10:59:22.199Z,4.72
2024-01-16T11:04:25.099Z,4.77
2024-01-16T11:09:27.277Z,5.45
2024-01-16T11:14:31.798Z,4.32
2024-01-16T11:19:48.293Z,4.63
2024-01-16T11:25:17.098Z,5.38
2024-01-16T11:30:31.617Z,6.55
2024-01-16T11:35:38.209Z,5.38
2024-01-16T11:40:39.837Z,5.85
2024-01-16T11:45:41.335Z,4.45
2024-01-16T11:50:44.226Z,3.97
2024-01-16T11:56:11.101Z,4.43
2024-01-16T12:01:14.138Z,5.33
2024-01-16T12:06:17.813Z,5.55
2024-01-16T12:11:22.808Z,4.47
2024-01-16T12:16:28.373Z,4.65
2024-01-16T12:21:30.202Z,4.82
2024-01-16T12:26:35.529Z,5.18
2024-01-16T12:31:37.122Z,4.38
2024-01-16T12:36:39.271Z,5.15
2024-01-16T12:41:47.935Z,4.32
2024-01-16T12:47:00.126Z,4.22
2024-01-16T12:52:22.914Z,4.10
2024-01-16T12:57:25.555Z,4.22
2024-01-16T13:02:27.265Z,4.60
2024-01-16T13:07:32.029Z,4.15
2024-01-16T13:12:34.867Z,4.57
2024-01-16T13:17:37.805Z,4.78
2024-01-16T13:22:45.146Z,4.30
2024-01-16T13:27:49.891Z,4.00
2024-01-16T13:32:52.146Z,4.47
2024-01-16T13:37:54.603Z,5.45
2024-01-16T13:42:56.618Z,5.22
2024-01-16T13:47:58.780Z,4.75
2024-01-16T13:53:01.729Z,4.78
2024-01-16T13:58:04.081Z,5.18
2024-01-16T14:03:07.891Z,5.72
2024-01-16T14:08:13.180Z,6.30
2024-01-16T14:13:14.886Z,5.55
2024-01-16T14:18:16.845Z,4.95
2024-01-16T14:23:18.640Z,4.68
2024-01-16T14:33:31.602Z,4.95
2024-01-16T14:38:33.975Z,5.22
2024-01-16T14:43:36.335Z,5.70
2024-01-16T14:48:47.514Z,5.32
2024-01-16T14:53:50.023Z,5.72
2024-01-16T14:58:52.345Z,6.30
2024-01-16T15:03:55.599Z,5.93
2024-01-16T15:08:59.105Z,6.03
2024-01-16T15:14:01.895Z,8.23
2024-01-16T15:19:04.935Z,11.82
2024-01-16T15:24:07.392Z,10.75
2024-01-16T15:29:11.585Z,7.97
2024-01-16T15:34:16.784Z,7.97
2024-01-16T15:39:22.879Z,8.63
2024-01-16T15:44:25.297Z,7.20
2024-01-16T15:49:28.183Z,13.02
2024-01-16T15:54:31.800Z,10.93
2024-01-16T15:59:33.719Z,10.80
2024-01-16T16:04:36.951Z,11.63
2024-01-16T16:09:39.944Z,41.25
2024-01-16T16:14:42.466Z,17.80
2024-01-16T16:19:47.029Z,11.93
2024-01-16T16:24:49.073Z,8.98
2024-01-16T16:29:50.889Z,9.48
2024-01-16T16:34:52.881Z,12.25
2024-01-16T16:39:55.471Z,18.17
2024-01-16T16:44:57.422Z,16.35
2024-01-16T16:50:02.768Z,15.88
2024-01-16T16:55:05.613Z,12.18
2024-01-16T17:00:08.721Z,13.52
2024-01-16T17:05:10.685Z,11.93
2024-01-16T17:10:12.781Z,12.95
2024-01-16T17:15:14.974Z,12.20
2024-01-16T17:20:16.702Z,10.90
2024-01-16T17:25:18.269Z,9.98
2024-01-16T17:30:20.811Z,9.43
2024-01-16T17:35:24.896Z,12.57
2024-01-16T17:40:26.463Z,11.80
2024-01-16T17:45:28.065Z,11.65
2024-01-16T17:50:29.746Z,13.18
2024-01-16T17:55:34.401Z,21.55
2024-01-16T18:00:36.336Z,26.50
2024-01-16T18:05:38.110Z,21.65
2024-01-16T18:10:40.727Z,19.50
2024-01-16T18:15:42.855Z,13.48
2024-01-16T18:20:45.284Z,12.55
2024-01-16T18:25:49.086Z,12.13
2024-01-16T18:30:52.823Z,9.32
2024-01-16T18:35:59.269Z,8.63
2024-01-16T18:41:01.900Z,8.55
2024-01-16T18:46:04.826Z,7.53
2024-01-16T18:51:06.831Z,6.55
2024-01-16T18:56:09.109Z,5.90
2024-01-16T19:01:12.524Z,7.20
2024-01-16T19:06:14.484Z,8.00
2024-01-16T19:11:17.118Z,8.60
2024-01-16T19:16:19.567Z,10.60
2024-01-16T19:21:21.605Z,11.20
2024-01-16T19:26:23.323Z,11.18
2024-01-16T19:31:25.280Z,9.27
2024-01-16T19:36:26.960Z,10.13
2024-01-16T19:41:32.763Z,9.48
2024-01-16T19:46:34.390Z,8.70
2024-01-16T19:51:39.837Z,9.98
